sensor_id;sensor_type;location;lat;lon;timestamp;temperature;humidity
20446;DHT22;10382;49.140;9.234;2022-08-14T00:01:59;22.40;83.10
20446;DHT22;10382;49.140;9.234;2022-08-14T00:04:26;22.30;84.00
20446;DHT22;10382;49.140;9.234;2022-08-14T00:06:53;22.30;84.90
20446;DHT22;10382;49.140;9.234;2022-08-14T00:09:20;22.40;85.80
20446;DHT22;10382;49.140;9.234;2022-08-14T00:11:47;22.50;85.70
20446;DHT22;10382;49.140;9.234;2022-08-14T00:14:16;22.50;86.60
20446;DHT22;10382;49.140;9.234;2022-08-14T00:16:43;22.60;87.00
20446;DHT22;10382;49.140;9.234;2022-08-14T00:19:10;22.70;86.70
20446;DHT22;10382;49.140;9.234;2022-08-14T00:21:37;22.70;87.30
20446;DHT22;10382;49.140;9.234;2022-08-14T00:24:04;22.80;86.70
20446;DHT22;10382;49.140;9.234;2022-08-14T00:26:31;22.80;86.10
20446;DHT22;10382;49.140;9.234;2022-08-14T00:28:58;22.90;86.50
20446;DHT22;10382;49.140;9.234;2022-08-14T00:31:26;22.90;86.60
20446;DHT22;10382;49.140;9.234;2022-08-14T00:33:55;23.00;87.20
20446;DHT22;10382;49.140;9.234;2022-08-14T00:36:23;23.00;86.50
20446;DHT22;10382;49.140;9.234;2022-08-14T00:38:50;23.10;86.90
20446;DHT22;10382;49.140;9.234;2022-08-14T00:41:17;23.00;88.20
20446;DHT22;10382;49.140;9.234;2022-08-14T00:43:44;22.80;88.20
20446;DHT22;10382;49.140;9.234;2022-08-14T00:46:11;22.80;88.90
20446;DHT22;10382;49.140;9.234;2022-08-14T00:48:40;22.80;89.40
20446;DHT22;10382;49.140;9.234;2022-08-14T00:51:09;22.70;90.30
20446;DHT22;10382;49.140;9.234;2022-08-14T00:53:37;22.60;90.70
20446;DHT22;10382;49.140;9.234;2022-08-14T00:56:05;22.50;91.30
20446;DHT22;10382;49.140;9.234;2022-08-14T00:58:32;22.30;92.00
20446;DHT22;10382;49.140;9.234;2022-08-14T01:01:01;22.30;92.40
20446;DHT22;10382;49.140;9.234;2022-08-14T01:03:29;22.20;93.10
20446;DHT22;10382;49.140;9.234;2022-08-14T01:05:58;22.00;93.90
20446;DHT22;10382;49.140;9.234;2022-08-14T01:08:27;21.90;94.80
20446;DHT22;10382;49.140;9.234;2022-08-14T01:10:55;21.70;96.10
20446;DHT22;10382;49.140;9.234;2022-08-14T01:13:25;21.70;96.30
20446;DHT22;10382;49.140;9.234;2022-08-14T01:15:55;21.70;97.10
20446;DHT22;10382;49.140;9.234;2022-08-14T01:18:25;21.70;97.50
20446;DHT22;10382;49.140;9.234;2022-08-14T01:21:11;21.70;98.00
20446;DHT22;10382;49.140;9.234;2022-08-14T01:23:43;21.80;98.50
20446;DHT22;10382;49.140;9.234;2022-08-14T01:26:11;21.80;99.10
20446;DHT22;10382;49.140;9.234;2022-08-14T01:28:39;21.70;99.50
20446;DHT22;10382;49.140;9.234;2022-08-14T01:31:09;21.80;99.90
20446;DHT22;10382;49.140;9.234;2022-08-14T01:33:37;21.80;99.90
20446;DHT22;10382;49.140;9.234;2022-08-14T01:36:07;21.80;99.90
20446;DHT22;10382;49.140;9.234;2022-08-14T01:38:36;21.80;99.90
20446;DHT22;10382;49.140;9.234;2022-08-14T01:41:06;22.00;99.90
20446;DHT22;10382;49.140;9.234;2022-08-14T01:43:42;22.10;99.90
20446;DHT22;10382;49.140;9.234;2022-08-14T01:46:09;22.30;99.90
20446;DHT22;10382;49.140;9.234;2022-08-14T01:48:37;22.50;99.90
20446;DHT22;10382;49.140;9.234;2022-08-14T01:51:09;22.60;99.90
20446;DHT22;10382;49.140;9.234;2022-08-14T01:53:38;22.70;99.90
20446;DHT22;10382;49.140;9.234;2022-08-14T01:56:07;22.90;99.50
20446;DHT22;10382;49.140;9.234;2022-08-14T01:58:34;23.00;99.40
20446;DHT22;10382;49.140;9.234;2022-08-14T02:01:01;23.00;99.40
20446;DHT22;10382;49.140;9.234;2022-08-14T02:03:30;23.00;99.50
20446;DHT22;10382;49.140;9.234;2022-08-14T02:05:57;23.00;99.80
20446;DHT22;10382;49.140;9.234;2022-08-14T02:08:25;23.00;99.90
20446;DHT22;10382;49.140;9.234;2022-08-14T02:10:56;22.90;99.90
20446;DHT22;10382;49.140;9.234;2022-08-14T02:13:39;22.80;99.90
20446;DHT22;10382;49.140;9.234;2022-08-14T02:16:09;22.70;99.90
20446;DHT22;10382;49.140;9.234;2022-08-14T02:18:36;22.60;99.90
20446;DHT22;10382;49.140;9.234;2022-08-14T02:21:05;22.60;99.90
20446;DHT22;10382;49.140;9.234;2022-08-14T02:23:32;22.60;99.90
20446;DHT22;10382;49.140;9.234;2022-08-14T02:26:01;22.60;99.90
20446;DHT22;10382;49.140;9.234;2022-08-14T02:28:29;22.50;99.90
20446;DHT22;10382;49.140;9.234;2022-08-14T02:30:59;22.60;99.90
20446;DHT22;10382;49.140;9.234;2022-08-14T02:33:26;22.60;99.90
20446;DHT22;10382;49.140;9.234;2022-08-14T02:35:53;22.50;98.10
20446;DHT22;10382;49.140;9.234;2022-08-14T02:38:21;22.30;97.10
20446;DHT22;10382;49.140;9.234;2022-08-14T02:40:48;22.20;97.00
20446;DHT22;10382;49.140;9.234;2022-08-14T02:43:15;22.10;96.90
20446;DHT22;10382;49.140;9.234;2022-08-14T02:45:42;22.00;96.60
20446;DHT22;10382;49.140;9.234;2022-08-14T02:48:12;22.00;96.60
20446;DHT22;10382;49.140;9.234;2022-08-14T02:50:39;22.00;96.40
20446;DHT22;10382;49.140;9.234;2022-08-14T02:53:07;21.90;96.30
20446;DHT22;10382;49.140;9.234;2022-08-14T02:55:34;21.90;96.30
20446;DHT22;10382;49.140;9.234;2022-08-14T02:58:02;21.80;96.10
20446;DHT22;10382;49.140;9.234;2022-08-14T03:00:32;21.80;95.70
20446;DHT22;10382;49.140;9.234;2022-08-14T03:02:59;21.70;95.40
20446;DHT22;10382;49.140;9.234;2022-08-14T03:05:30;21.60;95.80
20446;DHT22;10382;49.140;9.234;2022-08-14T03:08:04;21.50;96.10
20446;DHT22;10382;49.140;9.234;2022-08-14T03:10:32;21.40;96.70
20446;DHT22;10382;49.140;9.234;2022-08-14T03:12:59;21.20;97.30
20446;DHT22;10382;49.140;9.234;2022-08-14T03:15:29;21.30;97.50
20446;DHT22;10382;49.140;9.234;2022-08-14T03:17:57;21.20;97.30
20446;DHT22;10382;49.140;9.234;2022-08-14T03:20:25;21.20;97.70
20446;DHT22;10382;49.140;9.234;2022-08-14T03:22:54;21.20;97.80
20446;DHT22;10382;49.140;9.234;2022-08-14T03:25:23;21.20;97.90
20446;DHT22;10382;49.140;9.234;2022-08-14T03:27:50;21.10;98.20
20446;DHT22;10382;49.140;9.234;2022-08-14T03:30:17;21.10;98.40
20446;DHT22;10382;49.140;9.234;2022-08-14T03:32:44;21.10;98.80
20446;DHT22;10382;49.140;9.234;2022-08-14T03:35:11;21.10;99.00
20446;DHT22;10382;49.140;9.234;2022-08-14T03:37:38;21.00;99.90
20446;DHT22;10382;49.140;9.234;2022-08-14T03:40:10;21.00;99.90
20446;DHT22;10382;49.140;9.234;2022-08-14T03:42:37;20.70;99.90
20446;DHT22;10382;49.140;9.234;2022-08-14T03:45:05;20.40;99.90
20446;DHT22;10382;49.140;9.234;2022-08-14T03:47:32;20.20;99.90
20446;DHT22;10382;49.140;9.234;2022-08-14T03:50:06;20.20;99.90
20446;DHT22;10382;49.140;9.234;2022-08-14T03:52:35;20.10;99.90
20446;DHT22;10382;49.140;9.234;2022-08-14T03:55:03;20.00;99.90
20446;DHT22;10382;49.140;9.234;2022-08-14T03:57:32;20.00;99.90
20446;DHT22;10382;49.140;9.234;2022-08-14T04:00:03;19.90;99.90
20446;DHT22;10382;49.140;9.234;2022-08-14T04:02:32;19.80;99.90
20446;DHT22;10382;49.140;9.234;2022-08-14T04:04:58;19.60;99.90
20446;DHT22;10382;49.140;9.234;2022-08-14T04:07:26;19.60;99.90
20446;DHT22;10382;49.140;9.234;2022-08-14T04:09:53;19.40;99.90
20446;DHT22;10382;49.140;9.234;2022-08-14T04:12:20;19.40;99.90
20446;DHT22;10382;49.140;9.234;2022-08-14T04:14:48;19.40;99.90
20446;DHT22;10382;49.140;9.234;2022-08-14T04:17:17;19.40;99.90
20446;DHT22;10382;49.140;9.234;2022-08-14T04:19:44;19.40;99.90
20446;DHT22;10382;49.140;9.234;2022-08-14T04:22:12;19.50;99.90
20446;DHT22;10382;49.140;9.234;2022-08-14T04:24:39;19.50;99.90
20446;DHT22;10382;49.140;9.234;2022-08-14T04:27:07;19.40;99.90
20446;DHT22;10382;49.140;9.234;2022-08-14T04:29:36;19.20;99.90
20446;DHT22;10382;49.140;9.234;2022-08-14T04:32:06;19.20;99.90
20446;DHT22;10382;49.140;9.234;2022-08-14T04:34:34;19.10;99.90
20446;DHT22;10382;49.140;9.234;2022-08-14T04:37:03;19.10;99.90
20446;DHT22;10382;49.140;9.234;2022-08-14T04:39:48;19.00;99.90
20446;DHT22;10382;49.140;9.234;2022-08-14T04:42:32;19.10;99.90
20446;DHT22;10382;49.140;9.234;2022-08-14T04:45:16;19.10;99.90
20446;DHT22;10382;49.140;9.234;2022-08-14T04:47:44;19.20;99.90
20446;DHT22;10382;49.140;9.234;2022-08-14T04:50:28;19.00;99.90
20446;DHT22;10382;49.140;9.234;2022-08-14T04:52:55;18.80;99.90
20446;DHT22;10382;49.140;9.234;2022-08-14T04:55:22;18.80;99.90
20446;DHT22;10382;49.140;9.234;2022-08-14T04:57:49;18.60;99.90
20446;DHT22;10382;49.140;9.234;2022-08-14T05:00:16;18.50;99.90
20446;DHT22;10382;49.140;9.234;2022-08-14T05:02:45;18.50;99.90
20446;DHT22;10382;49.140;9.234;2022-08-14T05:05:12;18.60;99.90
20446;DHT22;10382;49.140;9.234;2022-08-14T05:07:39;18.70;99.90
20446;DHT22;10382;49.140;9.234;2022-08-14T05:10:07;18.90;99.90
20446;DHT22;10382;49.140;9.234;2022-08-14T05:12:34;19.10;99.90
20446;DHT22;10382;49.140;9.234;2022-08-14T05:15:05;19.30;99.90
20446;DHT22;10382;49.140;9.234;2022-08-14T05:17:32;19.50;99.90
20446;DHT22;10382;49.140;9.234;2022-08-14T05:20:00;19.70;99.90
20446;DHT22;10382;49.140;9.234;2022-08-14T05:22:27;20.00;99.90
20446;DHT22;10382;49.140;9.234;2022-08-14T05:24:54;20.20;99.90
20446;DHT22;10382;49.140;9.234;2022-08-14T05:27:21;20.40;99.90
20446;DHT22;10382;49.140;9.234;2022-08-14T05:29:48;20.50;99.90
20446;DHT22;10382;49.140;9.234;2022-08-14T05:32:15;20.70;99.90
20446;DHT22;10382;49.140;9.234;2022-08-14T05:34:42;20.90;99.90
20446;DHT22;10382;49.140;9.234;2022-08-14T05:37:10;21.10;99.90
20446;DHT22;10382;49.140;9.234;2022-08-14T05:39:38;21.20;99.90
20446;DHT22;10382;49.140;9.234;2022-08-14T05:42:06;21.40;99.90
20446;DHT22;10382;49.140;9.234;2022-08-14T05:44:33;21.60;99.90
20446;DHT22;10382;49.140;9.234;2022-08-14T05:47:00;21.70;99.90
20446;DHT22;10382;49.140;9.234;2022-08-14T05:49:27;21.90;99.90
20446;DHT22;10382;49.140;9.234;2022-08-14T05:51:54;22.00;99.90
20446;DHT22;10382;49.140;9.234;2022-08-14T05:54:22;22.20;99.90
20446;DHT22;10382;49.140;9.234;2022-08-14T05:56:49;22.30;99.90
20446;DHT22;10382;49.140;9.234;2022-08-14T05:59:16;22.50;99.90
20446;DHT22;10382;49.140;9.234;2022-08-14T06:01:44;22.70;99.90
20446;DHT22;10382;49.140;9.234;2022-08-14T06:04:10;22.90;99.90
20446;DHT22;10382;49.140;9.234;2022-08-14T06:06:37;23.10;99.90
20446;DHT22;10382;49.140;9.234;2022-08-14T06:09:04;23.30;99.90
20446;DHT22;10382;49.140;9.234;2022-08-14T06:11:34;23.50;99.90
20446;DHT22;10382;49.140;9.234;2022-08-14T06:14:01;23.80;99.90
20446;DHT22;10382;49.140;9.234;2022-08-14T06:16:28;24.00;99.90
20446;DHT22;10382;49.140;9.234;2022-08-14T06:18:55;24.30;99.90
20446;DHT22;10382;49.140;9.234;2022-08-14T06:21:22;24.50;99.90
20446;DHT22;10382;49.140;9.234;2022-08-14T06:23:50;24.70;99.90
20446;DHT22;10382;49.140;9.234;2022-08-14T06:26:17;25.00;99.90
20446;DHT22;10382;49.140;9.234;2022-08-14T06:28:45;25.20;99.90
20446;DHT22;10382;49.140;9.234;2022-08-14T06:31:12;25.50;99.90
20446;DHT22;10382;49.140;9.234;2022-08-14T06:33:39;25.90;99.90
20446;DHT22;10382;49.140;9.234;2022-08-14T06:36:07;26.20;99.90
20446;DHT22;10382;49.140;9.234;2022-08-14T06:38:34;26.40;99.00
20446;DHT22;10382;49.140;9.234;2022-08-14T06:41:01;26.70;97.70
20446;DHT22;10382;49.140;9.234;2022-08-14T06:43:28;26.90;97.30
20446;DHT22;10382;49.140;9.234;2022-08-14T06:45:56;27.30;96.60
20446;DHT22;10382;49.140;9.234;2022-08-14T06:48:24;27.60;95.00
20446;DHT22;10382;49.140;9.234;2022-08-14T06:50:52;27.70;94.70
20446;DHT22;10382;49.140;9.234;2022-08-14T06:53:19;28.10;93.30
20446;DHT22;10382;49.140;9.234;2022-08-14T06:55:47;28.30;92.30
20446;DHT22;10382;49.140;9.234;2022-08-14T06:58:16;28.50;91.40
20446;DHT22;10382;49.140;9.234;2022-08-14T07:00:43;28.70;90.70
20446;DHT22;10382;49.140;9.234;2022-08-14T07:03:32;28.90;89.80
20446;DHT22;10382;49.140;9.234;2022-08-14T07:06:18;28.90;88.20
20446;DHT22;10382;49.140;9.234;2022-08-14T07:08:45;28.90;87.50
20446;DHT22;10382;49.140;9.234;2022-08-14T07:11:12;28.90;87.80
20446;DHT22;10382;49.140;9.234;2022-08-14T07:13:39;28.90;86.40
20446;DHT22;10382;49.140;9.234;2022-08-14T07:16:07;29.00;86.30
20446;DHT22;10382;49.140;9.234;2022-08-14T07:18:39;29.20;85.30
20446;DHT22;10382;49.140;9.234;2022-08-14T07:21:07;29.20;84.00
20446;DHT22;10382;49.140;9.234;2022-08-14T07:23:34;29.30;83.80
20446;DHT22;10382;49.140;9.234;2022-08-14T07:26:03;29.30;84.40
20446;DHT22;10382;49.140;9.234;2022-08-14T07:28:32;29.60;82.70
20446;DHT22;10382;49.140;9.234;2022-08-14T07:31:02;29.90;82.50
20446;DHT22;10382;49.140;9.234;2022-08-14T07:33:31;30.20;80.70
20446;DHT22;10382;49.140;9.234;2022-08-14T07:36:03;30.50;79.40
20446;DHT22;10382;49.140;9.234;2022-08-14T07:38:30;30.90;78.10
20446;DHT22;10382;49.140;9.234;2022-08-14T07:40:57;31.10;76.90
20446;DHT22;10382;49.140;9.234;2022-08-14T07:43:24;31.40;76.30
20446;DHT22;10382;49.140;9.234;2022-08-14T07:45:52;31.50;74.20
20446;DHT22;10382;49.140;9.234;2022-08-14T07:48:19;31.60;74.50
20446;DHT22;10382;49.140;9.234;2022-08-14T07:50:46;31.80;73.70
20446;DHT22;10382;49.140;9.234;2022-08-14T07:53:16;31.90;72.10
20446;DHT22;10382;49.140;9.234;2022-08-14T07:55:44;32.00;71.20
20446;DHT22;10382;49.140;9.234;2022-08-14T07:58:11;31.80;70.40
20446;DHT22;10382;49.140;9.234;2022-08-14T08:00:39;31.70;70.60
20446;DHT22;10382;49.140;9.234;2022-08-14T08:03:07;31.60;71.10
20446;DHT22;10382;49.140;9.234;2022-08-14T08:05:36;31.40;70.90
20446;DHT22;10382;49.140;9.234;2022-08-14T08:08:03;31.40;71.00
20446;DHT22;10382;49.140;9.234;2022-08-14T08:10:32;31.30;71.50
20446;DHT22;10382;49.140;9.234;2022-08-14T08:13:01;31.10;70.80
20446;DHT22;10382;49.140;9.234;2022-08-14T08:15:30;30.70;71.40
20446;DHT22;10382;49.140;9.234;2022-08-14T08:17:58;30.80;72.60
20446;DHT22;10382;49.140;9.234;2022-08-14T08:20:27;30.80;72.10
20446;DHT22;10382;49.140;9.234;2022-08-14T08:22:55;30.80;70.90
20446;DHT22;10382;49.140;9.234;2022-08-14T08:25:23;30.60;71.80
20446;DHT22;10382;49.140;9.234;2022-08-14T08:27:56;30.40;71.90
20446;DHT22;10382;49.140;9.234;2022-08-14T08:30:24;30.20;72.60
20446;DHT22;10382;49.140;9.234;2022-08-14T08:32:52;30.30;73.10
20446;DHT22;10382;49.140;9.234;2022-08-14T08:35:21;30.40;73.00
20446;DHT22;10382;49.140;9.234;2022-08-14T08:37:48;30.70;72.70
20446;DHT22;10382;49.140;9.234;2022-08-14T08:40:23;30.90;70.80
20446;DHT22;10382;49.140;9.234;2022-08-14T08:42:50;31.10;70.10
20446;DHT22;10382;49.140;9.234;2022-08-14T08:45:19;31.10;69.60
20446;DHT22;10382;49.140;9.234;2022-08-14T08:47:47;31.20;69.60
20446;DHT22;10382;49.140;9.234;2022-08-14T08:50:19;31.20;69.30
20446;DHT22;10382;49.140;9.234;2022-08-14T08:52:48;31.10;69.30
20446;DHT22;10382;49.140;9.234;2022-08-14T08:55:22;31.10;69.20
20446;DHT22;10382;49.140;9.234;2022-08-14T08:57:53;31.20;68.60
20446;DHT22;10382;49.140;9.234;2022-08-14T09:00:22;31.20;68.20
20446;DHT22;10382;49.140;9.234;2022-08-14T09:02:57;31.20;67.80
20446;DHT22;10382;49.140;9.234;2022-08-14T09:05:25;31.20;67.90
20446;DHT22;10382;49.140;9.234;2022-08-14T09:07:53;31.40;67.10
20446;DHT22;10382;49.140;9.234;2022-08-14T09:10:20;31.70;65.40
20446;DHT22;10382;49.140;9.234;2022-08-14T09:12:47;31.90;64.60
20446;DHT22;10382;49.140;9.234;2022-08-14T09:15:14;32.00;64.90
20446;DHT22;10382;49.140;9.234;2022-08-14T09:17:43;32.20;64.20
20446;DHT22;10382;49.140;9.234;2022-08-14T09:20:10;32.20;62.60
20446;DHT22;10382;49.140;9.234;2022-08-14T09:22:41;32.10;63.30
20446;DHT22;10382;49.140;9.234;2022-08-14T09:25:09;32.30;63.80
20446;DHT22;10382;49.140;9.234;2022-08-14T09:27:36;32.50;61.90
20446;DHT22;10382;49.140;9.234;2022-08-14T09:30:05;32.70;62.40
20446;DHT22;10382;49.140;9.234;2022-08-14T09:32:38;32.90;61.40
20446;DHT22;10382;49.140;9.234;2022-08-14T09:35:19;33.10;58.20
20446;DHT22;10382;49.140;9.234;2022-08-14T09:37:59;33.10;58.90
20446;DHT22;10382;49.140;9.234;2022-08-14T09:40:41;33.20;57.60
20446;DHT22;10382;49.140;9.234;2022-08-14T09:43:17;33.50;56.90
20446;DHT22;10382;49.140;9.234;2022-08-14T09:45:49;33.50;55.40
20446;DHT22;10382;49.140;9.234;2022-08-14T09:48:19;33.40;54.40
20446;DHT22;10382;49.140;9.234;2022-08-14T09:50:49;33.20;54.80
20446;DHT22;10382;49.140;9.234;2022-08-14T09:53:33;33.20;54.10
20446;DHT22;10382;49.140;9.234;2022-08-14T09:56:01;33.40;54.00
20446;DHT22;10382;49.140;9.234;2022-08-14T09:58:36;33.40;53.40
20446;DHT22;10382;49.140;9.234;2022-08-14T10:01:08;33.40;53.50
20446;DHT22;10382;49.140;9.234;2022-08-14T10:03:37;33.40;53.10
20446;DHT22;10382;49.140;9.234;2022-08-14T10:06:08;32.70;52.60
20446;DHT22;10382;49.140;9.234;2022-08-14T10:08:41;32.20;53.80
20446;DHT22;10382;49.140;9.234;2022-08-14T10:11:13;31.50;53.80
20446;DHT22;10382;49.140;9.234;2022-08-14T10:13:42;31.70;54.30
20446;DHT22;10382;49.140;9.234;2022-08-14T10:16:09;31.40;54.40
20446;DHT22;10382;49.140;9.234;2022-08-14T10:18:37;31.00;54.10
20446;DHT22;10382;49.140;9.234;2022-08-14T10:21:08;31.10;54.80
20446;DHT22;10382;49.140;9.234;2022-08-14T10:23:41;31.50;54.10
20446;DHT22;10382;49.140;9.234;2022-08-14T10:26:18;31.70;53.90
20446;DHT22;10382;49.140;9.234;2022-08-14T10:28:48;31.80;54.10
20446;DHT22;10382;49.140;9.234;2022-08-14T10:31:20;31.80;54.00
20446;DHT22;10382;49.140;9.234;2022-08-14T10:33:57;31.20;53.30
20446;DHT22;10382;49.140;9.234;2022-08-14T10:36:28;31.20;54.10
20446;DHT22;10382;49.140;9.234;2022-08-14T10:38:58;31.20;54.00
20446;DHT22;10382;49.140;9.234;2022-08-14T10:41:34;31.00;54.70
20446;DHT22;10382;49.140;9.234;2022-08-14T10:44:08;31.20;54.30
20446;DHT22;10382;49.140;9.234;2022-08-14T10:46:41;31.50;54.50
20446;DHT22;10382;49.140;9.234;2022-08-14T10:49:20;31.90;53.80
20446;DHT22;10382;49.140;9.234;2022-08-14T10:52:00;32.20;53.40
20446;DHT22;10382;49.140;9.234;2022-08-14T10:54:35;32.00;53.40
20446;DHT22;10382;49.140;9.234;2022-08-14T10:57:15;31.70;53.80
20446;DHT22;10382;49.140;9.234;2022-08-14T10:59:47;31.90;53.80
20446;DHT22;10382;49.140;9.234;2022-08-14T11:02:19;32.20;54.00
20446;DHT22;10382;49.140;9.234;2022-08-14T11:05:02;32.50;53.50
20446;DHT22;10382;49.140;9.234;2022-08-14T11:07:32;32.50;53.10
20446;DHT22;10382;49.140;9.234;2022-08-14T11:10:01;32.10;53.30
20446;DHT22;10382;49.140;9.234;2022-08-14T11:12:39;32.10;53.90
20446;DHT22;10382;49.140;9.234;2022-08-14T11:15:07;32.50;53.70
20446;DHT22;10382;49.140;9.234;2022-08-14T11:17:34;32.70;53.70
20446;DHT22;10382;49.140;9.234;2022-08-14T11:20:04;33.20;52.90
20446;DHT22;10382;49.140;9.234;2022-08-14T11:22:32;32.90;52.20
20446;DHT22;10382;49.140;9.234;2022-08-14T11:25:03;32.50;52.40
20446;DHT22;10382;49.140;9.234;2022-08-14T11:27:31;32.10;52.90
20446;DHT22;10382;49.140;9.234;2022-08-14T11:30:00;32.10;52.80
20446;DHT22;10382;49.140;9.234;2022-08-14T11:32:28;32.50;52.90
20446;DHT22;10382;49.140;9.234;2022-08-14T11:34:56;32.80;52.80
20446;DHT22;10382;49.140;9.234;2022-08-14T11:37:23;32.90;52.30
20446;DHT22;10382;49.140;9.234;2022-08-14T11:39:51;32.90;52.70
20446;DHT22;10382;49.140;9.234;2022-08-14T11:42:20;32.90;52.10
20446;DHT22;10382;49.140;9.234;2022-08-14T11:44:48;33.10;51.50
20446;DHT22;10382;49.140;9.234;2022-08-14T11:47:15;33.40;51.30
20446;DHT22;10382;49.140;9.234;2022-08-14T11:49:44;33.60;50.50
20446;DHT22;10382;49.140;9.234;2022-08-14T11:52:12;33.90;50.50
20446;DHT22;10382;49.140;9.234;2022-08-14T11:54:39;33.90;49.30
20446;DHT22;10382;49.140;9.234;2022-08-14T11:57:14;33.70;50.20
20446;DHT22;10382;49.140;9.234;2022-08-14T11:59:41;33.20;50.40
20446;DHT22;10382;49.140;9.234;2022-08-14T12:02:09;33.20;50.80
20446;DHT22;10382;49.140;9.234;2022-08-14T12:04:47;33.60;50.10
20446;DHT22;10382;49.140;9.234;2022-08-14T12:07:15;33.60;49.50
20446;DHT22;10382;49.140;9.234;2022-08-14T12:09:43;33.40;49.60
20446;DHT22;10382;49.140;9.234;2022-08-14T12:12:17;33.20;50.20
20446;DHT22;10382;49.140;9.234;2022-08-14T12:14:49;33.50;50.00
20446;DHT22;10382;49.140;9.234;2022-08-14T12:17:18;34.00;49.70
20446;DHT22;10382;49.140;9.234;2022-08-14T12:19:50;34.00;49.30
20446;DHT22;10382;49.140;9.234;2022-08-14T12:22:18;33.60;49.10
20446;DHT22;10382;49.140;9.234;2022-08-14T12:24:48;33.70;49.70
20446;DHT22;10382;49.140;9.234;2022-08-14T12:27:17;34.30;48.50
20446;DHT22;10382;49.140;9.234;2022-08-14T12:29:51;34.60;48.50
20446;DHT22;10382;49.140;9.234;2022-08-14T12:32:18;35.20;47.90
20446;DHT22;10382;49.140;9.234;2022-08-14T12:34:52;35.80;46.90
20446;DHT22;10382;49.140;9.234;2022-08-14T12:37:28;36.00;46.30
20446;DHT22;10382;49.140;9.234;2022-08-14T12:40:08;36.00;45.90
20446;DHT22;10382;49.140;9.234;2022-08-14T12:42:36;36.20;46.00
20446;DHT22;10382;49.140;9.234;2022-08-14T12:45:04;36.30;46.10
20446;DHT22;10382;49.140;9.234;2022-08-14T12:47:32;36.10;45.90
20446;DHT22;10382;49.140;9.234;2022-08-14T12:49:59;36.10;45.70
20446;DHT22;10382;49.140;9.234;2022-08-14T12:52:28;36.00;45.80
20446;DHT22;10382;49.140;9.234;2022-08-14T12:55:00;35.70;45.90
20446;DHT22;10382;49.140;9.234;2022-08-14T12:57:39;35.60;46.10
20446;DHT22;10382;49.140;9.234;2022-08-14T13:00:11;35.60;46.30
20446;DHT22;10382;49.140;9.234;2022-08-14T13:02:39;36.00;46.00
20446;DHT22;10382;49.140;9.234;2022-08-14T13:05:08;36.30;45.50
20446;DHT22;10382;49.140;9.234;2022-08-14T13:07:37;36.50;45.00
20446;DHT22;10382;49.140;9.234;2022-08-14T13:10:06;36.30;45.10
20446;DHT22;10382;49.140;9.234;2022-08-14T13:12:37;36.20;45.20
20446;DHT22;10382;49.140;9.234;2022-08-14T13:15:06;36.40;44.20
20446;DHT22;10382;49.140;9.234;2022-08-14T13:17:39;36.80;44.40
20446;DHT22;10382;49.140;9.234;2022-08-14T13:20:08;36.70;42.80
20446;DHT22;10382;49.140;9.234;2022-08-14T13:22:37;36.60;43.50
20446;DHT22;10382;49.140;9.234;2022-08-14T13:25:07;36.40;43.00
20446;DHT22;10382;49.140;9.234;2022-08-14T13:27:34;36.30;42.80
20446;DHT22;10382;49.140;9.234;2022-08-14T13:30:06;36.50;42.70
20446;DHT22;10382;49.140;9.234;2022-08-14T13:32:36;36.70;43.20
20446;DHT22;10382;49.140;9.234;2022-08-14T13:35:06;37.10;42.90
20446;DHT22;10382;49.140;9.234;2022-08-14T13:37:33;37.30;42.70
20446;DHT22;10382;49.140;9.234;2022-08-14T13:40:00;37.00;42.70
20446;DHT22;10382;49.140;9.234;2022-08-14T13:42:28;36.90;43.10
20446;DHT22;10382;49.140;9.234;2022-08-14T13:44:56;36.30;42.30
20446;DHT22;10382;49.140;9.234;2022-08-14T13:47:27;35.80;41.90
20446;DHT22;10382;49.140;9.234;2022-08-14T13:49:56;35.30;42.70
20446;DHT22;10382;49.140;9.234;2022-08-14T13:52:25;35.10;43.30
20446;DHT22;10382;49.140;9.234;2022-08-14T13:54:57;34.80;42.80
20446;DHT22;10382;49.140;9.234;2022-08-14T13:57:27;34.70;42.90
20446;DHT22;10382;49.140;9.234;2022-08-14T14:00:00;34.80;43.00
20446;DHT22;10382;49.140;9.234;2022-08-14T14:02:31;35.20;43.40
20446;DHT22;10382;49.140;9.234;2022-08-14T14:05:03;35.30;43.20
20446;DHT22;10382;49.140;9.234;2022-08-14T14:07:33;35.00;43.70
20446;DHT22;10382;49.140;9.234;2022-08-14T14:10:02;35.30;43.70
20446;DHT22;10382;49.140;9.234;2022-08-14T14:12:30;35.70;43.30
20446;DHT22;10382;49.140;9.234;2022-08-14T14:14:59;36.00;42.80
20446;DHT22;10382;49.140;9.234;2022-08-14T14:17:26;36.40;42.80
20446;DHT22;10382;49.140;9.234;2022-08-14T14:19:55;36.80;42.20
20446;DHT22;10382;49.140;9.234;2022-08-14T14:22:24;37.30;42.20
20446;DHT22;10382;49.140;9.234;2022-08-14T14:24:52;37.40;42.00
20446;DHT22;10382;49.140;9.234;2022-08-14T14:27:19;36.90;41.60
20446;DHT22;10382;49.140;9.234;2022-08-14T14:29:48;36.90;41.00
20446;DHT22;10382;49.140;9.234;2022-08-14T14:32:17;36.70;41.70
20446;DHT22;10382;49.140;9.234;2022-08-14T14:34:44;37.00;41.50
20446;DHT22;10382;49.140;9.234;2022-08-14T14:37:14;37.30;41.10
20446;DHT22;10382;49.140;9.234;2022-08-14T14:39:41;37.00;40.60
20446;DHT22;10382;49.140;9.234;2022-08-14T14:42:11;36.90;41.00
20446;DHT22;10382;49.140;9.234;2022-08-14T14:44:40;36.80;40.80
20446;DHT22;10382;49.140;9.234;2022-08-14T14:47:09;36.60;40.80
20446;DHT22;10382;49.140;9.234;2022-08-14T14:49:38;36.90;41.10
20446;DHT22;10382;49.140;9.234;2022-08-14T14:52:09;37.20;40.70
20446;DHT22;10382;49.140;9.234;2022-08-14T14:54:40;37.70;40.50
20446;DHT22;10382;49.140;9.234;2022-08-14T14:57:10;38.00;40.10
20446;DHT22;10382;49.140;9.234;2022-08-14T14:59:39;38.20;40.10
20446;DHT22;10382;49.140;9.234;2022-08-14T15:02:07;38.30;40.50
20446;DHT22;10382;49.140;9.234;2022-08-14T15:04:37;38.20;40.20
20446;DHT22;10382;49.140;9.234;2022-08-14T15:07:05;37.70;41.00
20446;DHT22;10382;49.140;9.234;2022-08-14T15:09:33;37.40;41.30
20446;DHT22;10382;49.140;9.234;2022-08-14T15:12:03;37.40;41.70
20446;DHT22;10382;49.140;9.234;2022-08-14T15:14:32;37.40;41.90
20446;DHT22;10382;49.140;9.234;2022-08-14T15:17:00;37.00;40.90
20446;DHT22;10382;49.140;9.234;2022-08-14T15:19:28;36.60;41.20
20446;DHT22;10382;49.140;9.234;2022-08-14T15:21:57;36.10;41.10
20446;DHT22;10382;49.140;9.234;2022-08-14T15:24:27;35.80;41.30
20446;DHT22;10382;49.140;9.234;2022-08-14T15:26:55;35.70;41.50
20446;DHT22;10382;49.140;9.234;2022-08-14T15:29:28;35.80;41.70
20446;DHT22;10382;49.140;9.234;2022-08-14T15:31:56;35.90;41.20
20446;DHT22;10382;49.140;9.234;2022-08-14T15:34:24;36.10;41.30
20446;DHT22;10382;49.140;9.234;2022-08-14T15:36:53;36.20;41.90
20446;DHT22;10382;49.140;9.234;2022-08-14T15:39:21;36.20;41.30
20446;DHT22;10382;49.140;9.234;2022-08-14T15:41:49;35.90;40.70
20446;DHT22;10382;49.140;9.234;2022-08-14T15:44:16;35.50;41.50